createdAt,value
2018-06-20T00:00:34.388Z,12.86
2018-06-20T00:01:34.546Z,12.78
2018-06-20T00:02:34.413Z,12.79
2018-06-20T00:03:34.376Z,12.81
2018-06-20T00:04:34.388Z,12.8
2018-06-20T00:05:34.366Z,12.83
2018-06-20T00:06:34.391Z,12.74
2018-06-20T00:07:34.376Z,12.73
2018-06-20T00:08:34.379Z,12.71
2018-06-20T00:09:34.391Z,12.72
2018-06-20T00:10:34.404Z,12.72
2018-06-20T00:11:34.371Z,12.8
2018-06-20T00:12:34.369Z,12.79
2018-06-20T00:13:34.362Z,12.8
2018-06-20T00:14:34.360Z,12.84
2018-06-20T00:15:34.373Z,12.84
2018-06-20T00:16:34.366Z,12.82
2018-06-20T00:17:34.392Z,12.74
2018-06-20T00:18:34.397Z,12.8
2018-06-20T00:19:34.403Z,12.75
2018-06-20T00:20:34.380Z,12.84
2018-06-20T00:21:34.427Z,12.71
2018-06-20T00:22:34.415Z,12.81
2018-06-20T00:23:34.417Z,12.79
2018-06-20T00:24:34.370Z,12.69
2018-06-20T00:25:34.374Z,12.72
2018-06-20T00:26:34.441Z,12.65
2018-06-20T00:27:34.440Z,12.66
2018-06-20T00:28:34.421Z,12.57
2018-06-20T00:29:34.363Z,12.6
2018-06-20T00:30:34.393Z,12.71
2018-06-20T00:31:34.376Z,12.71
2018-06-20T00:32:34.548Z,12.65
2018-06-20T00:33:34.451Z,12.62
2018-06-20T00:34:34.516Z,12.5
2018-06-20T00:35:34.412Z,12.53
2018-06-20T00:36:34.453Z,12.58
2018-06-20T00:37:34.404Z,12.7
2018-06-20T00:38:34.424Z,12.65
2018-06-20T00:39:34.398Z,12.69
2018-06-20T00:40:34.418Z,12.66
2018-06-20T00:41:34.401Z,12.57
2018-06-20T00:42:34.452Z,12.6
2018-06-20T00:43:34.383Z,12.5
2018-06-20T00:44:34.365Z,12.59
2018-06-20T00:45:34.537Z,12.61
2018-06-20T00:46:34.377Z,12.63
2018-06-20T00:47:34.419Z,12.72
2018-06-20T00:48:34.412Z,12.67
2018-06-20T00:49:34.424Z,12.7
2018-06-20T00:50:34.555Z,12.71
2018-06-20T00:51:34.386Z,12.75
2018-06-20T00:52:34.400Z,12.69
2018-06-20T00:53:34.403Z,12.66
2018-06-20T00:54:34.388Z,12.58
2018-06-20T00:55:34.468Z,12.61
2018-06-20T00:56:34.427Z,12.7
2018-06-20T00:57:34.427Z,12.67
2018-06-20T00:58:34.395Z,12.69
2018-06-20T00:59:34.387Z,12.59
2018-06-20T01:00:34.435Z,12.64
2018-06-20T01:01:34.416Z,12.67
2018-06-20T01:02:34.397Z,12.66
2018-06-20T01:03:34.402Z,12.67
2018-06-20T01:04:34.394Z,12.68
2018-06-20T01:05:34.454Z,12.64
2018-06-20T01:06:34.406Z,12.56
2018-06-20T01:07:34.386Z,12.68
2018-06-20T01:08:34.560Z,12.66
2018-06-20T01:09:34.445Z,12.61
2018-06-20T01:10:34.395Z,12.6
2018-06-20T01:11:34.999Z,12.59
2018-06-20T01:12:34.414Z,12.47
2018-06-20T01:13:34.408Z,12.57
2018-06-20T01:14:34.432Z,12.54
2018-06-20T01:15:34.403Z,12.56
2018-06-20T01:16:34.400Z,12.52
2018-06-20T01:17:34.409Z,12.53
2018-06-20T01:18:34.429Z,12.58
2018-06-20T01:19:34.409Z,12.59
2018-06-20T01:20:34.419Z,12.64
2018-06-20T01:21:34.471Z,12.49
2018-06-20T01:22:34.432Z,12.59
2018-06-20T01:23:34.427Z,12.52
2018-06-20T01:24:34.457Z,12.56
2018-06-20T01:25:34.409Z,12.58
2018-06-20T01:26:34.422Z,12.61
2018-06-20T01:27:34.441Z,12.5
2018-06-20T01:28:34.420Z,12.56
2018-06-20T01:29:34.473Z,12.6
2018-06-20T01:30:34.437Z,12.43
2018-06-20T01:31:34.413Z,12.62
2018-06-20T01:32:34.419Z,12.56
2018-06-20T01:33:34.446Z,12.6
2018-06-20T01:34:34.402Z,12.61
2018-06-20T01:35:34.420Z,12.63
2018-06-20T01:36:34.529Z,12.49
2018-06-20T01:37:34.562Z,12.38
2018-06-20T01:38:34.467Z,12.44
2018-06-20T01:39:35.161Z,12.42
2018-06-20T01:40:34.421Z,12.38
2018-06-20T01:41:34.546Z,12.42
2018-06-20T01:42:34.415Z,12.44
2018-06-20T01:43:34.436Z,12.41
2018-06-20T01:44:34.526Z,12.46
2018-06-20T01:45:34.498Z,12.59
2018-06-20T01:46:34.434Z,12.48
2018-06-20T01:47:34.421Z,12.54
2018-06-20T01:48:34.430Z,12.6
2018-06-20T01:49:34.488Z,12.6
2018-06-20T01:50:34.456Z,12.54
2018-06-20T01:51:34.447Z,12.55
2018-06-20T01:52:34.424Z,12.54
2018-06-20T01:53:34.422Z,12.59
2018-06-20T01:54:34.550Z,12.53
2018-06-20T01:55:34.981Z,12.58
2018-06-20T01:56:34.497Z,12.48
2018-06-20T01:57:34.458Z,12.51
2018-06-20T01:58:34.425Z,12.47
2018-06-20T01:59:34.629Z,12.55
2018-06-20T02:00:34.455Z,12.51
2018-06-20T02:01:34.445Z,12.53
2018-06-20T02:02:34.436Z,12.5
2018-06-20T02:03:34.471Z,12.33
2018-06-20T02:04:34.450Z,12.27
2018-06-20T02:05:34.438Z,12.28
2018-06-20T02:06:34.535Z,12.21
2018-06-20T02:07:34.478Z,12.22
2018-06-20T02:08:34.463Z,12.18
2018-06-20T02:09:34.470Z,12.17
2018-06-20T02:10:34.455Z,12.18
2018-06-20T02:11:34.517Z,12.17
2018-06-20T02:12:34.656Z,12.11
2018-06-20T02:13:34.453Z,12.13
2018-06-20T02:14:34.545Z,12.12
2018-06-20T02:15:34.456Z,12.08
2018-06-20T02:16:34.444Z,12.13
2018-06-20T02:17:34.446Z,12.17
2018-06-20T02:18:34.488Z,12.17
2018-06-20T02:19:34.450Z,12.29
2018-06-20T02:20:34.467Z,12.18
2018-06-20T02:21:34.440Z,12.14
2018-06-20T02:22:34.637Z,12.27
2018-06-20T02:23:34.466Z,12.3
2018-06-20T02:24:34.463Z,12.37
2018-06-20T02:25:34.451Z,12.3
2018-06-20T02:26:34.469Z,12.33
2018-06-20T02:27:34.463Z,12.24
2018-06-20T02:28:34.452Z,12.32
2018-06-20T02:29:34.462Z,12.33
2018-06-20T02:30:34.495Z,12.35
2018-06-20T02:31:34.452Z,12.3
2018-06-20T02:32:34.523Z,12.22
2018-06-20T02:33:34.465Z,12.35
2018-06-20T02:34:34.480Z,12.32
2018-06-20T02:35:34.487Z,12.33
2018-06-20T02:36:34.725Z,12.28
2018-06-20T02:37:34.512Z,12.22
2018-06-20T02:38:34.498Z,12.17
2018-06-20T02:39:34.465Z,12.15
2018-06-20T02:40:34.503Z,12.13
2018-06-20T02:41:34.484Z,12.12
2018-06-20T02:42:34.484Z,12.06
2018-06-20T02:43:34.616Z,12.04
2018-06-20T02:44:34.520Z,11.98
2018-06-20T02:45:34.526Z,12.05
2018-06-20T02:46:34.502Z,12.05
2018-06-20T02:47:34.479Z,12.04
2018-06-20T02:48:34.473Z,12.06
2018-06-20T02:49:34.626Z,12.07
2018-06-20T02:50:34.507Z,12.1
2018-06-20T02:51:34.807Z,12.19
2018-06-20T02:52:35.095Z,12.19
2018-06-20T02:53:34.495Z,12.21
2018-06-20T02:54:34.488Z,12.22
2018-06-20T02:55:34.571Z,12.19
2018-06-20T02:56:34.489Z,12.21
2018-06-20T02:57:34.525Z,12.28
2018-06-20T02:58:34.505Z,12.25
2018-06-20T02:59:34.544Z,12.25
2018-06-20T03:00:34.502Z,12.23
2018-06-20T03:01:34.485Z,12.25
2018-06-20T03:02:34.834Z,12.19
2018-06-20T03:03:34.486Z,12.25
2018-06-20T03:04:34.484Z,12.24
2018-06-20T03:05:34.500Z,12.19
2018-06-20T03:06:34.545Z,12.18
2018-06-20T03:07:34.696Z,12.24
2018-06-20T03:08:34.492Z,12.17
2018-06-20T03:09:34.504Z,12.19
2018-06-20T03:10:34.547Z,12.19
2018-06-20T03:11:34.542Z,12.16
2018-06-20T03:12:34.534Z,12.25
2018-06-20T03:13:34.488Z,12.26
2018-06-20T03:14:34.496Z,12.24
2018-06-20T03:15:34.510Z,12.17
2018-06-20T03:16:34.510Z,12.29
2018-06-20T03:17:34.560Z,12.24
2018-06-20T03:18:34.519Z,12.14
2018-06-20T03:19:34.495Z,12.13
2018-06-20T03:20:34.498Z,12.21
2018-06-20T03:21:34.494Z,12.18
2018-06-20T03:22:34.520Z,12.23
2018-06-20T03:23:34.520Z,12.22
2018-06-20T03:24:34.515Z,12.21
2018-06-20T03:25:34.670Z,12.25
2018-06-20T03:26:34.518Z,12.14
2018-06-20T03:27:34.531Z,12.14
2018-06-20T03:28:34.487Z,12.09
2018-06-20T03:29:34.535Z,12.03
2018-06-20T03:30:34.621Z,11.98
2018-06-20T03:31:34.492Z,11.96
2018-06-20T03:32:34.518Z,11.92
2018-06-20T03:33:34.504Z,11.93
2018-06-20T03:34:34.525Z,11.93
2018-06-20T03:35:34.504Z,11.9
2018-06-20T03:36:34.496Z,11.83
2018-06-20T03:37:34.502Z,11.81
2018-06-20T03:38:34.530Z,11.88
2018-06-20T03:39:34.500Z,11.92
2018-06-20T03:40:34.573Z,11.93
2018-06-20T03:41:34.511Z,11.89
2018-06-20T03:42:34.522Z,11.91
2018-06-20T03:43:34.506Z,11.93
2018-06-20T03:44:34.521Z,11.91
2018-06-20T03:45:34.507Z,11.86
2018-06-20T03:46:34.518Z,11.86
2018-06-20T03:47:34.520Z,11.82
2018-06-20T03:48:34.562Z,11.83
2018-06-20T03:49:34.531Z,11.79
2018-06-20T03:50:34.529Z,11.89
2018-06-20T03:51:34.494Z,11.85
2018-06-20T03:52:34.502Z,11.9
2018-06-20T03:53:34.561Z,11.91
2018-06-20T03:54:34.500Z,11.87
2018-06-20T03:55:34.698Z,11.89
2018-06-20T03:56:34.570Z,11.87
2018-06-20T03:57:34.524Z,11.96
2018-06-20T03:58:34.540Z,11.92
2018-06-20T03:59:34.521Z,12.05
2018-06-20T04:00:34.529Z,12.13
2018-06-20T04:01:34.514Z,12.14
2018-06-20T04:02:34.552Z,12.14
2018-06-20T04:03:34.523Z,12.15
2018-06-20T04:04:34.523Z,12.2
2018-06-20T04:05:34.531Z,12.16
2018-06-20T04:06:34.534Z,12.24
2018-06-20T04:07:34.562Z,12.19
2018-06-20T04:08:34.659Z,12.33
2018-06-20T04:09:34.544Z,12.2
2018-06-20T04:10:34.524Z,12.14
2018-06-20T04:11:34.568Z,12.13
2018-06-20T04:12:34.536Z,12.16
2018-06-20T04:13:34.543Z,12.16
2018-06-20T04:14:34.564Z,12.09
2018-06-20T04:15:34.521Z,12.19
2018-06-20T04:16:34.537Z,12.25
2018-06-20T04:17:34.516Z,12.24
2018-06-20T04:18:34.549Z,12.19
2018-06-20T04:19:34.556Z,12.21
2018-06-20T04:20:34.535Z,12.26
2018-06-20T04:21:34.584Z,12.22
2018-06-20T04:22:34.567Z,12.2
2018-06-20T04:23:34.556Z,12.22
2018-06-20T04:24:34.556Z,12.25
2018-06-20T04:25:34.604Z,12.2
2018-06-20T04:26:34.568Z,12.25
2018-06-20T04:27:34.555Z,12.16
2018-06-20T04:28:34.569Z,12.22
2018-06-20T04:29:34.564Z,12.2
2018-06-20T04:30:34.895Z,12.36
2018-06-20T04:31:34.583Z,12.34
2018-06-20T04:32:34.589Z,12.31
2018-06-20T04:33:34.584Z,12.39
2018-06-20T04:34:34.843Z,12.31
2018-06-20T04:35:34.630Z,12.36
2018-06-20T04:36:34.543Z,12.43
2018-06-20T04:37:34.737Z,12.29
2018-06-20T04:38:34.568Z,12.26
2018-06-20T04:39:34.570Z,12.3
2018-06-20T04:40:34.777Z,12.37
2018-06-20T04:41:34.632Z,12.27
2018-06-20T04:42:34.546Z,12.29
2018-06-20T04:43:34.608Z,12.36
2018-06-20T04:44:34.841Z,12.31
2018-06-20T04:45:34.589Z,12.4
2018-06-20T04:46:34.538Z,12.32
2018-06-20T04:47:34.551Z,12.32
2018-06-20T04:48:34.571Z,12.33
2018-06-20T04:49:34.558Z,12.36
2018-06-20T04:50:34.564Z,12.33
2018-06-20T04:51:34.540Z,12.41
2018-06-20T04:52:34.576Z,12.43
2018-06-20T04:53:34.528Z,12.4
2018-06-20T04:54:34.565Z,12.38
2018-06-20T04:55:34.875Z,12.39
2018-06-20T04:56:34.550Z,12.37
2018-06-20T04:57:34.594Z,12.34
2018-06-20T04:58:34.556Z,12.46
2018-06-20T04:59:34.600Z,12.41
2018-06-20T05:00:34.568Z,12.39
2018-06-20T05:01:34.609Z,12.43
2018-06-20T05:02:34.570Z,12.42
2018-06-20T05:03:34.603Z,12.46
2018-06-20T05:04:34.587Z,12.45
2018-06-20T05:05:34.703Z,12.49
2018-06-20T05:06:34.708Z,12.5
2018-06-20T05:07:34.570Z,12.47
2018-06-20T05:08:34.576Z,12.41
2018-06-20T05:09:34.630Z,12.47
2018-06-20T05:10:34.583Z,12.49
2018-06-20T05:11:34.622Z,12.47
2018-06-20T05:12:34.597Z,12.5
2018-06-20T05:13:34.630Z,12.48
2018-06-20T05:14:34.800Z,12.46
2018-06-20T05:15:34.564Z,12.47
2018-06-20T05:16:34.656Z,12.48
2018-06-20T05:17:34.591Z,12.6
2018-06-20T05:18:34.571Z,12.64
2018-06-20T05:19:34.584Z,12.71
2018-06-20T05:20:34.609Z,12.67
2018-06-20T05:21:34.608Z,12.66
2018-06-20T05:22:34.946Z,12.68
2018-06-20T05:23:34.631Z,12.7
2018-06-20T05:24:34.776Z,12.71
2018-06-20T05:25:34.577Z,12.64
2018-06-20T05:26:34.855Z,12.68
2018-06-20T05:27:34.879Z,12.72
2018-06-20T05:28:34.750Z,12.65
2018-06-20T05:29:34.681Z,12.74
2018-06-20T05:30:34.717Z,12.75
2018-06-20T05:31:34.753Z,12.69
2018-06-20T05:32:34.718Z,12.71
2018-06-20T05:33:34.890Z,12.74
2018-06-20T05:34:34.757Z,12.78
2018-06-20T05:35:34.741Z,12.77
2018-06-20T05:36:34.787Z,12.75
2018-06-20T05:37:34.737Z,12.76
2018-06-20T05:38:34.818Z,12.75
2018-06-20T05:39:34.804Z,12.79
2018-06-20T05:40:34.837Z,12.74
2018-06-20T05:41:34.753Z,12.84
2018-06-20T05:42:34.796Z,12.88
2018-06-20T05:43:34.825Z,12.82
2018-06-20T05:44:34.818Z,12.79
2018-06-20T05:45:34.819Z,12.87
2018-06-20T05:46:34.746Z,12.88
2018-06-20T05:47:34.837Z,12.88
2018-06-20T05:48:34.759Z,12.88
2018-06-20T05:49:34.849Z,12.87
2018-06-20T05:50:34.842Z,12.96
2018-06-20T05:51:34.848Z,12.93
2018-06-20T05:52:34.755Z,12.91
2018-06-20T05:53:34.833Z,12.94
2018-06-20T05:54:34.727Z,12.9
2018-06-20T05:55:34.755Z,12.95
2018-06-20T05:56:34.803Z,12.96
2018-06-20T05:57:34.793Z,13
2018-06-20T05:58:34.789Z,13.01
2018-06-20T05:59:34.825Z,12.95
2018-06-20T06:00:34.727Z,12.98
2018-06-20T06:01:34.850Z,13
2018-06-20T06:02:34.741Z,12.92
2018-06-20T06:03:34.935Z,12.94
2018-06-20T06:04:34.780Z,12.93
2018-06-20T06:05:34.843Z,13
2018-06-20T06:06:34.729Z,12.96
2018-06-20T06:07:34.835Z,12.99
2018-06-20T06:08:34.969Z,12.99
2018-06-20T06:09:34.738Z,13.02
2018-06-20T06:10:34.855Z,13.07
2018-06-20T06:11:34.825Z,13.1
2018-06-20T06:12:34.833Z,13.12
2018-06-20T06:13:34.856Z,13.1
2018-06-20T06:14:34.841Z,13.13
2018-06-20T06:15:34.855Z,13.17
2018-06-20T06:16:34.625Z,13.12
2018-06-20T06:17:34.907Z,13.19
2018-06-20T06:18:34.629Z,13.23
2018-06-20T06:19:34.882Z,13.21
2018-06-20T06:20:34.651Z,13.13
2018-06-20T06:21:34.665Z,13.17
2018-06-20T06:22:34.960Z,13.17
2018-06-20T06:23:35.011Z,13.13
2018-06-20T06:24:34.645Z,13.06
2018-06-20T06:25:34.623Z,13.2
2018-06-20T06:26:34.635Z,13.16
2018-06-20T06:27:34.656Z,13.26
2018-06-20T06:28:34.962Z,13.22
2018-06-20T06:29:34.715Z,13.21
2018-06-20T06:30:35.021Z,13.24
2018-06-20T06:31:34.624Z,13.24
2018-06-20T06:32:34.663Z,13.27
2018-06-20T06:33:34.706Z,13.21
2018-06-20T06:34:34.658Z,13.29
2018-06-20T06:35:34.643Z,13.33
2018-06-20T06:36:34.654Z,13.32
2018-06-20T06:37:35.037Z,13.33
2018-06-20T06:38:34.642Z,13.26
2018-06-20T06:39:34.662Z,13.17
2018-06-20T06:40:34.680Z,13.29
2018-06-20T06:41:34.642Z,13.35
2018-06-20T06:42:34.631Z,13.39
2018-06-20T06:43:34.628Z,13.39
2018-06-20T06:44:35.096Z,13.42
2018-06-20T06:45:35.259Z,13.42
2018-06-20T06:46:34.656Z,13.46
2018-06-20T06:47:34.676Z,13.58
2018-06-20T06:48:34.689Z,13.39
2018-06-20T06:49:35.221Z,13.46
2018-06-20T06:50:34.646Z,13.43
2018-06-20T06:51:34.682Z,13.57
2018-06-20T06:52:34.695Z,13.56
2018-06-20T06:53:34.630Z,13.64
2018-06-20T06:54:34.640Z,13.52
2018-06-20T06:55:34.633Z,13.62
2018-06-20T06:56:34.717Z,13.62
2018-06-20T06:57:34.637Z,13.62
2018-06-20T06:58:34.713Z,13.5
2018-06-20T06:59:34.627Z,13.68
2018-06-20T07:00:34.735Z,13.7
2018-06-20T07:01:34.854Z,13.65
2018-06-20T07:02:35.183Z,13.68
2018-06-20T07:03:34.669Z,13.79
2018-06-20T07:04:34.641Z,13.79
2018-06-20T07:05:34.717Z,13.78
2018-06-20T07:06:34.654Z,13.75
2018-06-20T07:07:34.665Z,13.77
2018-06-20T07:08:34.710Z,13.82
2018-06-20T07:09:34.673Z,13.83
2018-06-20T07:10:34.651Z,13.87
2018-06-20T07:11:34.676Z,13.95
2018-06-20T07:12:34.636Z,13.82
2018-06-20T07:13:34.664Z,13.65
2018-06-20T07:14:34.681Z,13.72
2018-06-20T07:15:35.782Z,13.74
2018-06-20T07:16:34.719Z,13.76
2018-06-20T07:17:34.723Z,13.81
2018-06-20T07:18:34.703Z,13.85
2018-06-20T07:19:34.672Z,13.94
2018-06-20T07:20:34.693Z,13.91
2018-06-20T07:21:34.697Z,13.68
2018-06-20T07:22:34.662Z,13.76
2018-06-20T07:23:34.728Z,13.8
2018-06-20T07:24:35.401Z,13.76
2018-06-20T07:25:34.658Z,13.85
2018-06-20T07:26:34.704Z,13.88
2018-06-20T07:27:34.690Z,13.96
2018-06-20T07:28:34.991Z,13.87
2018-06-20T07:29:34.697Z,13.65
2018-06-20T07:30:34.657Z,13.77
2018-06-20T07:31:34.662Z,13.77
2018-06-20T07:32:34.741Z,13.85
2018-06-20T07:33:34.675Z,13.81
2018-06-20T07:34:35.388Z,13.79
2018-06-20T07:35:36.605Z,13.68
2018-06-20T07:36:34.687Z,13.78
2018-06-20T07:37:34.733Z,13.72
2018-06-20T07:38:34.748Z,13.55
2018-06-20T07:39:35.089Z,13.56
2018-06-20T07:40:34.722Z,13.59
2018-06-20T07:41:34.736Z,13.54
2018-06-20T07:42:34.742Z,13.6
2018-06-20T07:43:34.698Z,13.68
2018-06-20T07:44:34.716Z,13.84
2018-06-20T07:45:34.790Z,13.79
2018-06-20T07:46:34.652Z,13.94
2018-06-20T07:47:34.694Z,13.93
2018-06-20T07:48:34.701Z,13.86
2018-06-20T07:49:34.860Z,13.82
2018-06-20T07:50:34.743Z,13.9
2018-06-20T07:51:34.827Z,13.85
2018-06-20T07:52:34.937Z,13.77
2018-06-20T07:53:34.786Z,13.77
2018-06-20T07:54:34.917Z,13.66
2018-06-20T07:55:34.862Z,13.73
2018-06-20T07:56:34.833Z,13.75
2018-06-20T07:57:34.806Z,13.73
2018-06-20T07:58:34.817Z,13.9
2018-06-20T07:59:34.771Z,13.8
2018-06-20T08:00:35.191Z,13.88
2018-06-20T08:01:34.816Z,13.97
2018-06-20T08:02:34.774Z,14.01
2018-06-20T08:03:34.961Z,13.95
2018-06-20T08:04:34.803Z,13.94
2018-06-20T08:05:34.746Z,13.9
2018-06-20T08:06:34.792Z,13.9
2018-06-20T08:07:34.803Z,13.92
2018-06-20T08:08:34.783Z,14.07
2018-06-20T08:09:34.810Z,14.06
2018-06-20T08:10:34.808Z,14.08
2018-06-20T08:11:34.826Z,14.18
2018-06-20T08:12:34.831Z,14.12
2018-06-20T08:13:34.848Z,14.06
2018-06-20T08:14:34.832Z,13.78
2018-06-20T08:15:34.837Z,13.77
2018-06-20T08:16:34.824Z,13.73
2018-06-20T08:17:34.841Z,13.81
2018-06-20T08:18:34.808Z,13.84
2018-06-20T08:19:34.845Z,13.88
2018-06-20T08:20:34.849Z,13.88
2018-06-20T08:21:34.843Z,13.75
2018-06-20T08:22:34.824Z,13.73
2018-06-20T08:23:34.804Z,13.44
2018-06-20T08:24:34.799Z,13.44
2018-06-20T08:25:34.818Z,13.47
2018-06-20T08:26:34.816Z,13.33
2018-06-20T08:27:34.832Z,13.52
2018-06-20T08:28:34.836Z,13.72
2018-06-20T08:29:34.814Z,13.72
2018-06-20T08:30:34.819Z,13.65
2018-06-20T08:31:34.827Z,13.89
2018-06-20T08:32:34.855Z,13.98
2018-06-20T08:33:34.846Z,14.01
2018-06-20T08:34:34.836Z,13.84
2018-06-20T08:35:34.848Z,13.94
2018-06-20T08:36:35.001Z,13.57
2018-06-20T08:37:34.861Z,13.54
2018-06-20T08:38:34.923Z,13.75
2018-06-20T08:39:34.882Z,13.75
2018-06-20T08:40:34.876Z,13.87
2018-06-20T08:41:35.189Z,13.92
2018-06-20T08:42:35.139Z,14
2018-06-20T08:43:34.862Z,13.97
2018-06-20T08:44:35.067Z,13.84
2018-06-20T08:45:34.904Z,13.85
2018-06-20T08:46:34.868Z,13.71
2018-06-20T08:47:34.949Z,13.56
2018-06-20T08:48:34.939Z,13.51
2018-06-20T08:49:34.899Z,13.52
2018-06-20T08:50:34.923Z,13.53
2018-06-20T08:51:35.063Z,13.51
2018-06-20T08:52:35.105Z,13.6
2018-06-20T08:53:34.944Z,13.57
2018-06-20T08:54:34.867Z,13.65
2018-06-20T08:55:34.902Z,13.8
2018-06-20T08:56:34.856Z,13.87
2018-06-20T08:57:35.105Z,13.88
2018-06-20T08:58:34.942Z,13.78
2018-06-20T08:59:34.912Z,13.73
2018-06-20T09:00:34.779Z,13.86
2018-06-20T09:01:34.713Z,13.74
2018-06-20T09:02:34.748Z,13.76
2018-06-20T09:03:34.792Z,14
2018-06-20T09:04:34.757Z,13.82
2018-06-20T09:05:34.755Z,13.77
2018-06-20T09:06:34.822Z,13.71
2018-06-20T09:07:34.729Z,13.75
2018-06-20T09:08:35.139Z,13.6
2018-06-20T09:09:34.752Z,13.63
2018-06-20T09:10:34.724Z,13.7
2018-06-20T09:11:34.763Z,13.7
2018-06-20T09:12:34.770Z,13.83
2018-06-20T09:13:34.725Z,13.68
2018-06-20T09:14:34.776Z,13.86
2018-06-20T09:15:34.765Z,13.76
2018-06-20T09:16:34.771Z,13.89
2018-06-20T09:17:34.763Z,13.7
2018-06-20T09:18:34.813Z,13.79
2018-06-20T09:19:34.746Z,13.63
2018-06-20T09:20:34.824Z,13.74
2018-06-20T09:21:34.769Z,13.87
2018-06-20T09:22:34.771Z,13.92
2018-06-20T09:23:34.769Z,13.74
2018-06-20T09:24:34.799Z,13.71
2018-06-20T09:25:34.756Z,13.74
2018-06-20T09:26:34.736Z,13.84
2018-06-20T09:27:34.763Z,13.93
2018-06-20T09:28:34.761Z,13.93
2018-06-20T09:29:34.744Z,13.89
2018-06-20T09:30:34.782Z,13.94
2018-06-20T09:31:34.813Z,13.9
2018-06-20T09:32:34.767Z,14.04
2018-06-20T09:33:34.814Z,13.88
2018-06-20T09:34:34.788Z,13.59
2018-06-20T09:35:34.796Z,13.88
2018-06-20T09:36:34.751Z,13.82
2018-06-20T09:37:34.751Z,13.64
2018-06-20T09:38:35.157Z,13.83
2018-06-20T09:39:35.099Z,13.59
2018-06-20T09:40:34.764Z,13.52
2018-06-20T09:41:34.766Z,13.54
2018-06-20T09:42:34.877Z,13.46
2018-06-20T09:43:34.794Z,13.53
2018-06-20T09:44:35.118Z,13.62
2018-06-20T09:45:34.762Z,13.73
2018-06-20T09:46:34.815Z,13.78
2018-06-20T09:47:34.824Z,13.74
2018-06-20T09:48:34.877Z,13.87
2018-06-20T09:49:34.819Z,13.78
2018-06-20T09:50:34.871Z,13.6
2018-06-20T09:51:34.867Z,13.76
2018-06-20T09:52:34.782Z,13.74
2018-06-20T09:53:34.833Z,13.88
2018-06-20T09:54:34.821Z,13.76
2018-06-20T09:55:34.873Z,13.56
2018-06-20T09:56:34.800Z,13.77
2018-06-20T09:57:34.767Z,13.94
2018-06-20T09:58:34.795Z,13.97
2018-06-20T09:59:34.760Z,14
2018-06-20T10:00:35.021Z,13.97
2018-06-20T10:01:35.394Z,13.78
2018-06-20T10:02:34.778Z,13.87
2018-06-20T10:03:34.858Z,13.96
2018-06-20T10:04:34.768Z,13.55
2018-06-20T10:05:34.962Z,13.68
2018-06-20T10:06:34.847Z,13.45
2018-06-20T10:07:34.807Z,13.52
2018-06-20T10:08:34.788Z,13.74
2018-06-20T10:09:34.787Z,13.51
2018-06-20T10:10:34.901Z,13.96
2018-06-20T10:11:34.829Z,13.78
2018-06-20T10:12:34.904Z,13.21
2018-06-20T10:13:34.817Z,13.29
2018-06-20T10:14:34.789Z,13.36
2018-06-20T10:15:34.772Z,13.32
2018-06-20T10:16:35.013Z,13.48
2018-06-20T10:17:34.873Z,13.72
2018-06-20T10:18:34.791Z,13.65
2018-06-20T10:19:34.795Z,13.52
2018-06-20T10:20:34.803Z,13.78
2018-06-20T10:21:34.812Z,14
2018-06-20T10:22:34.818Z,14.2
2018-06-20T10:23:34.943Z,14.03
2018-06-20T10:24:34.817Z,13.87
2018-06-20T10:25:34.804Z,13.61
2018-06-20T10:26:34.910Z,13.92
2018-06-20T10:27:34.863Z,13.87
2018-06-20T10:28:35.181Z,14.07
2018-06-20T10:29:34.863Z,14.1
2018-06-20T10:30:34.962Z,14.09
2018-06-20T10:31:34.801Z,13.94
2018-06-20T10:32:34.854Z,13.97
2018-06-20T10:33:34.802Z,13.8
2018-06-20T10:34:34.823Z,13.49
2018-06-20T10:35:34.811Z,13.53
2018-06-20T10:36:34.812Z,13.47
2018-06-20T10:37:34.888Z,13.93
2018-06-20T10:38:34.822Z,13.83
2018-06-20T10:39:34.830Z,13.97
2018-06-20T10:40:34.858Z,14.08
2018-06-20T10:41:34.834Z,13.53
2018-06-20T10:42:34.851Z,13.92
2018-06-20T10:43:34.830Z,13.95
2018-06-20T10:44:34.826Z,13.96
2018-06-20T10:45:34.834Z,13.5
2018-06-20T10:46:34.865Z,13.58
2018-06-20T10:47:34.796Z,13.32
2018-06-20T10:48:34.818Z,13.31
2018-06-20T10:49:34.859Z,13.67
2018-06-20T10:50:34.903Z,13.87
2018-06-20T10:51:35.081Z,13.95
2018-06-20T10:52:34.839Z,14.03
2018-06-20T10:53:34.850Z,13.71
2018-06-20T10:54:34.957Z,13.88
2018-06-20T10:55:35.022Z,13.95
2018-06-20T10:56:35.046Z,13.95
2018-06-20T10:57:34.828Z,13.92
2018-06-20T10:58:34.967Z,13.83
2018-06-20T10:59:34.863Z,13.93
2018-06-20T11:00:35.056Z,14.01
2018-06-20T11:01:34.968Z,13.82
2018-06-20T11:02:34.797Z,13.9
2018-06-20T11:03:34.799Z,13.64
2018-06-20T11:04:34.813Z,13.61
2018-06-20T11:05:34.820Z,13.47
2018-06-20T11:06:34.827Z,13.34
2018-06-20T11:07:35.065Z,13.13
2018-06-20T11:08:34.854Z,13.12
2018-06-20T11:09:35.197Z,13.2
2018-06-20T11:10:34.850Z,13.21
2018-06-20T11:11:35.020Z,13.28
2018-06-20T11:12:34.808Z,13.37
2018-06-20T11:13:34.992Z,13.59
2018-06-20T11:14:34.864Z,13.33
2018-06-20T11:15:34.844Z,13.27
2018-06-20T11:16:34.833Z,13.49
2018-06-20T11:17:34.874Z,13.39
2018-06-20T11:18:34.909Z,13.85
2018-06-20T11:19:34.988Z,13.73
2018-06-20T11:20:34.875Z,13.74
2018-06-20T11:21:34.874Z,14
2018-06-20T11:22:34.849Z,13.82
2018-06-20T11:23:34.883Z,14.03
2018-06-20T11:24:34.854Z,13.84
2018-06-20T11:25:35.209Z,13.92
2018-06-20T11:26:34.886Z,13.32
2018-06-20T11:27:34.877Z,13.6
2018-06-20T11:28:34.910Z,13.76
2018-06-20T11:29:34.845Z,13.65
2018-06-20T11:30:34.858Z,13.74
2018-06-20T11:31:34.842Z,13.82
2018-06-20T11:32:34.843Z,13.53
2018-06-20T11:33:34.837Z,13.64
2018-06-20T11:34:34.850Z,13.25
2018-06-20T11:35:34.860Z,13.42
2018-06-20T11:36:34.849Z,13.67
2018-06-20T11:37:34.846Z,13.41
2018-06-20T11:38:34.829Z,13.45
2018-06-20T11:39:35.407Z,13.55
2018-06-20T11:40:34.987Z,13.65
2018-06-20T11:41:34.851Z,13.45
2018-06-20T11:42:34.868Z,13.64
2018-06-20T11:43:34.865Z,13.69
2018-06-20T11:44:34.854Z,13.78
2018-06-20T11:45:34.881Z,13.79
2018-06-20T11:46:34.880Z,12.9
2018-06-20T11:47:34.852Z,12.98
2018-06-20T11:48:34.863Z,13.45
2018-06-20T11:49:34.852Z,13.54
2018-06-20T11:50:34.921Z,13.64
2018-06-20T11:51:34.881Z,13.67
2018-06-20T11:52:34.874Z,13.59
2018-06-20T11:53:34.868Z,13.79
2018-06-20T11:54:35.077Z,13.69
2018-06-20T11:55:34.845Z,12.81
2018-06-20T11:56:35.018Z,13.14
2018-06-20T11:57:34.917Z,13.34
2018-06-20T11:58:34.918Z,13.59
2018-06-20T11:59:34.874Z,13.68
2018-06-20T12:00:34.929Z,13.47
2018-06-20T12:01:34.919Z,13.61
2018-06-20T12:02:34.886Z,13.3
2018-06-20T12:03:34.959Z,13.28
2018-06-20T12:04:34.870Z,13.3
2018-06-20T12:05:35.007Z,12.76
2018-06-20T12:06:34.881Z,13.2
2018-06-20T12:07:34.873Z,13.62
2018-06-20T12:08:34.887Z,13.61
2018-06-20T12:09:34.873Z,13.15
2018-06-20T12:10:34.898Z,13.16
2018-06-20T12:11:35.006Z,13.32
2018-06-20T12:12:34.882Z,13.43
2018-06-20T12:13:35.280Z,13.26
2018-06-20T12:14:34.863Z,13.53
2018-06-20T12:15:34.909Z,13.8
2018-06-20T12:16:35.070Z,13.67
2018-06-20T12:17:34.911Z,13.98
2018-06-20T12:18:34.925Z,13.78
2018-06-20T12:19:35.006Z,13.89
2018-06-20T12:20:34.930Z,14.06
2018-06-20T12:21:35.115Z,13.65
2018-06-20T12:22:34.988Z,13.82
2018-06-20T12:23:34.899Z,13.94
2018-06-20T12:24:34.875Z,13.92
2018-06-20T12:25:34.900Z,13.66
2018-06-20T12:26:34.962Z,13.82
2018-06-20T12:27:35.119Z,13.93
2018-06-20T12:28:34.949Z,14.05
2018-06-20T12:29:34.971Z,13.69
2018-06-20T12:30:34.950Z,13.86
2018-06-20T12:31:34.911Z,13.73
2018-06-20T12:32:34.890Z,13.89
2018-06-20T12:33:35.057Z,14.09
2018-06-20T12:34:34.902Z,13.52
2018-06-20T12:35:34.895Z,13.74
2018-06-20T12:36:35.193Z,13.49
2018-06-20T12:37:34.950Z,13.76
2018-06-20T12:38:35.093Z,13.94
2018-06-20T12:39:34.981Z,13.99
2018-06-20T12:40:35.076Z,13.75
2018-06-20T12:41:34.907Z,13.57
2018-06-20T12:42:35.062Z,13.32
2018-06-20T12:43:35.067Z,13.4
2018-06-20T12:44:34.894Z,13.52
2018-06-20T12:45:34.951Z,13.82
2018-06-20T12:46:34.899Z,13.57
2018-06-20T12:47:34.920Z,13.8
2018-06-20T12:48:34.899Z,13.49
2018-06-20T12:49:34.924Z,13.48
2018-06-20T12:50:34.919Z,13.6
2018-06-20T12:51:34.904Z,13.22
2018-06-20T12:52:35.425Z,13.62
2018-06-20T12:53:34.938Z,13.44
2018-06-20T12:54:34.963Z,13.46
2018-06-20T12:55:34.910Z,13.69